Moab, UT

5:34 AM MDT on April 26, 2015 (GMT -0600)
MesoWest | | Change Station
CLOSE
Current Station
Personal Weather Station
Location: Moab, UT
Elevation: 4476 ft
Nearby Weather Stations
Active Advisory: Areal Flood Advisory

Elev 4476 ft 38.54 °N, 109.51 °W | Updated 34 minutes ago

Overcast
Overcast
47 °F
Feels Like 47 °F
N
1
Wind Variable Wind from SE
Gusts 6.0 mph

Today
High -- | Low -- °F
--% Chance of Precip.
Yesterday
High -- | Low -- °F
Precip. -- in
6:27 AM 8:04 PM
First Quarter, 55% visible
Pressure 29.62 in
Visibility 10.0 miles
Clouds Scattered Clouds 4700 ft
Windchill 47 °F
Dew Point 40 °F
Humidity 76%
Rainfall in
Snow Depth Not available.
UV 0 out of 12
Pollen 1.90 out of 12
Air Quality Not available.
Flu Activity Local Activity
METAR KCNY 261053Z AUTO 00000KT 10SM SCT047 08/07 A2969 RMK AO2 SLP031 T00780067

More Conditions Fewer Conditions

Pressure 29.62 in
Visibility 10.0 miles
Clouds Scattered Clouds 4700 ft
Windchill 47 °F
Dew Point 40 °F
Humidity 76%
Rainfall in
Snow Depth Not available.
UV 0 out of 12
Pollen 1.90 out of 12
Air Quality Not available.
Flu Activity Local Activity
METAR KCNY 261053Z AUTO 00000KT 10SM SCT047 08/07 A2969 RMK AO2 SLP031 T00780067

More Conditions Fewer Conditions

The full scope of the disaster following a powerful 7.8-magnitude earthquake in Nepal may not come into view for days, but global charities are already sending emergency aid. Click to see how you can help.

10-Day Weather Forecast

Almanac

Astronomy

Apr. 26, 2015 Rise Set
Actual Time
Civil Twilight
Nautical Twilight
Astronomical Twilight
Moon
Length of Visible Light
Length of Day
Tomorrow will be .
, % of the Moon is Illuminated

Today's Extremes

State Highs State Lows

Community

WunderPhotos

Upload Photos

1,816,964 photos uploaded!

WunderBlogs® & News

Nearby

Air Quality

  Air Quality AQ Index Pollutant
Not available.

Snow Depth

Station Depth Elevation

Earthquake Activity

City Distance Mag. Time & Date
Minimum magnitude displayed is 2.5.

Coastal Water Temperatures

Place Temperature

Stations

Nearby Weather Stations

Station Location Temp. Windchill Dew Point Humidity Wind Precip. Elev Updated Type
                   
Areal Flood Advisory
Statement as of 3:49 AM MDT on April 26, 2015

... The Flood Advisory remains in effect until 145 PM MDT Sunday for
southern Grand County...

* flooding has closed the Road to Delicate Arch viewpoint in Arches
National Park.

* Persistent rainfall is expected through this morning... therefore
flooding will remain possible along Salt Wash and Winter Camp Wash
in Arches National Park.

Precautionary/preparedness actions...

Do not drive your vehicle into areas where the water covers the
roadway. The water depth may be too great to allow your car to cross
safely. Move to higher ground.


Lat... Lon 3874 10949 3872 10949 3871 10951 3874 10952


Cc